CheckWX is a tool to help pilots better visualize weather data.  It is not intended as a substitute for an official pre-flight weather briefing.

14:49:49 UTC

EGHC TAF
Land's End Airport
Land's End, United Kingdom
TAF EGHC 231357Z 2315/2318 05016KT 9999 FEW012 SCT020 PROB30 TEMPO 2315/2318 9000 -RA BKN012

Mar-23@
15:00 UTC

Mar-23 @ 15:00 UTC

Mar-23@
18:00 UTC

Mar-23 @ 18:00 UTC

TAF EGHC 231357Z 2315/2318 05016KT 9999 FEW012 SCT020
Wind
  • 050° at 16 KTS
Cloud Levels
  • Few at 1,200' AGL
  • Scattered at 2,000' AGL

Mar-23@
15:00 UTC

Mar-23 @ 15:00 UTC

Mar-23@
18:00 UTC

Mar-23 @ 18:00 UTC

PROB30 TEMPO 2315/2318 9000 -RA BKN012

Temporary - 30% Likelihood

Temporary - 30% Likelihood during this time.

Conditions
Light Rain
Cloud Levels
  • Broken at 1,200' AGL